createdAt,value
2019-04-16T00:02:06.676Z,2.30
2019-04-16T00:04:58.228Z,2.20
2019-04-16T00:07:55.716Z,2.20
2019-04-16T00:10:38.102Z,2.30
2019-04-16T00:13:23.500Z,2.30
2019-04-16T00:15:53.134Z,2.30
2019-04-16T00:18:22.725Z,2.30
2019-04-16T00:21:17.339Z,2.30
2019-04-16T00:24:10.476Z,2.20
2019-04-16T00:26:40.222Z,2.10
2019-04-16T00:29:09.806Z,2.10
2019-04-16T00:31:39.844Z,2.10
2019-04-16T00:34:13.401Z,2.00
2019-04-16T00:36:40.700Z,2.00
2019-04-16T00:39:10.955Z,1.90
2019-04-16T00:41:40.486Z,1.90
2019-04-16T00:44:10.093Z,1.90
2019-04-16T00:46:39.644Z,1.80
2019-04-16T00:49:09.164Z,1.80
2019-04-16T00:51:38.709Z,1.80
2019-04-16T00:54:10.459Z,1.70
2019-04-16T00:56:39.434Z,1.70
2019-04-16T00:59:08.975Z,1.60
2019-04-16T01:01:38.565Z,1.50
2019-04-16T01:04:08.084Z,1.40
2019-04-16T01:06:37.988Z,1.30
2019-04-16T01:09:09.002Z,1.30
2019-04-16T01:11:38.617Z,1.20
2019-04-16T01:14:08.090Z,1.20
2019-04-16T01:16:37.649Z,1.20
2019-04-16T01:19:09.873Z,1.20
2019-04-16T01:21:38.422Z,1.20
2019-04-16T01:24:07.951Z,1.30
2019-04-16T01:26:37.518Z,1.30
2019-04-16T01:29:10.392Z,1.40
2019-04-16T01:31:58.065Z,1.50
2019-04-16T01:34:49.656Z,1.50
2019-04-16T01:37:44.266Z,1.50
2019-04-16T01:40:18.630Z,1.50
2019-04-16T01:42:47.551Z,1.50
2019-04-16T01:45:17.129Z,1.50
2019-04-16T01:47:46.702Z,1.50
2019-04-16T01:50:16.240Z,1.60
2019-04-16T01:52:49.433Z,1.60
2019-04-16T01:55:17.044Z,1.60
2019-04-16T01:57:46.597Z,1.50
2019-04-16T02:00:16.138Z,1.50
2019-04-16T02:02:46.412Z,1.50
2019-04-16T02:05:16.656Z,1.60
2019-04-16T02:07:46.228Z,1.60
2019-04-16T02:10:15.840Z,1.60
2019-04-16T02:12:45.405Z,1.60
2019-04-16T02:15:15.233Z,1.60
2019-04-16T02:17:44.806Z,1.60
2019-04-16T02:20:14.545Z,1.60
2019-04-16T02:22:45.159Z,1.50
2019-04-16T02:25:18.995Z,1.40
2019-04-16T02:27:46.461Z,1.40
2019-04-16T02:30:16.211Z,1.30
2019-04-16T02:32:45.778Z,1.30
2019-04-16T02:35:15.417Z,1.30
2019-04-16T02:37:44.997Z,1.20
2019-04-16T02:40:18.469Z,1.30
2019-04-16T02:42:45.751Z,1.30
2019-04-16T02:45:15.313Z,1.30
2019-04-16T02:47:44.933Z,1.30
2019-04-16T02:50:19.484Z,1.20
2019-04-16T02:53:00.073Z,1.20
2019-04-16T02:55:44.634Z,1.20
2019-04-16T02:58:18.989Z,1.20
2019-04-16T03:01:20.913Z,1.10
2019-04-16T03:04:07.116Z,1.10
2019-04-16T03:06:36.654Z,1.00
2019-04-16T03:09:09.220Z,1.00
2019-04-16T03:11:38.303Z,1.00
2019-04-16T03:14:07.872Z,1.00
2019-04-16T03:16:44.740Z,0.90
2019-04-16T03:19:20.041Z,0.80
2019-04-16T03:21:48.850Z,0.70
2019-04-16T03:24:18.426Z,0.60
2019-04-16T03:26:50.413Z,0.50
2019-04-16T03:29:19.190Z,0.30
2019-04-16T03:31:57.301Z,0.20
2019-04-16T03:34:22.093Z,0.10
2019-04-16T03:36:51.289Z,0.00
2019-04-16T03:39:20.849Z,-0.10
2019-04-16T03:41:50.423Z,-0.10
2019-04-16T03:44:20.104Z,-0.20
2019-04-16T03:46:49.672Z,-0.30
2019-04-16T03:49:19.249Z,-0.40
2019-04-16T03:51:48.830Z,-0.40
2019-04-16T03:54:18.876Z,-0.40
2019-04-16T03:56:49.600Z,-0.50
2019-04-16T03:59:19.175Z,-0.50
2019-04-16T04:01:48.715Z,-0.60
2019-04-16T04:04:18.285Z,-0.60
2019-04-16T04:06:47.841Z,-0.60
2019-04-16T04:09:18.948Z,-0.70
2019-04-16T04:11:48.624Z,-0.70
2019-04-16T04:14:22.374Z,-0.70
2019-04-16T04:16:49.445Z,-0.70
2019-04-16T04:19:19.028Z,-0.80
2019-04-16T04:21:50.703Z,-0.80
2019-04-16T04:24:19.855Z,-0.80
2019-04-16T04:26:49.411Z,-0.80
2019-04-16T04:29:20.687Z,-0.80
2019-04-16T04:31:50.271Z,-0.80
2019-04-16T04:34:19.869Z,-0.80
2019-04-16T04:36:49.506Z,-0.80
2019-04-16T04:39:19.093Z,-0.70
2019-04-16T04:41:48.636Z,-0.70
2019-04-16T04:44:18.244Z,-0.60
2019-04-16T04:46:47.814Z,-0.50
2019-04-16T04:49:17.670Z,-0.40
2019-04-16T04:51:47.582Z,-0.30
2019-04-16T04:54:21.541Z,-0.30
2019-04-16T04:56:48.344Z,-0.20
2019-04-16T04:59:17.941Z,-0.10
2019-04-16T05:01:47.498Z,0.00
2019-04-16T05:04:36.022Z,0.10
2019-04-16T05:07:07.228Z,0.30
2019-04-16T05:09:36.925Z,1.00
2019-04-16T05:12:08.311Z,2.00
2019-04-16T05:14:41.162Z,2.80
2019-04-16T05:17:10.754Z,3.30
2019-04-16T05:19:40.358Z,3.70
2019-04-16T05:22:09.912Z,4.00
2019-04-16T05:24:39.512Z,4.40
2019-04-16T05:27:09.468Z,4.80
2019-04-16T05:29:39.197Z,5.30
2019-04-16T05:32:08.753Z,5.80
2019-04-16T05:34:38.560Z,6.20
2019-04-16T05:37:08.316Z,6.30
2019-04-16T05:39:37.886Z,6.40
2019-04-16T05:42:07.442Z,6.40
2019-04-16T05:44:37.014Z,6.30
2019-04-16T05:47:06.593Z,6.30
2019-04-16T05:49:36.202Z,6.50
2019-04-16T05:52:05.745Z,6.90
2019-04-16T05:54:52.197Z,7.20
2019-04-16T05:57:27.646Z,7.40
2019-04-16T05:59:57.566Z,7.70
2019-04-16T06:02:38.616Z,8.10
2019-04-16T06:09:24.513Z,9.30
2019-04-16T06:11:55.537Z,9.70
2019-04-16T06:14:46.512Z,9.70
2019-04-16T06:17:35.331Z,9.80
2019-04-16T06:20:30.520Z,10.00
2019-04-16T06:23:19.167Z,9.80
2019-04-16T06:26:03.984Z,10.00
2019-04-16T06:28:59.699Z,10.50
2019-04-16T06:31:52.569Z,10.80
2019-04-16T06:34:32.649Z,10.90
2019-04-16T06:37:11.545Z,11.40
2019-04-16T06:40:00.945Z,11.80
2019-04-16T06:42:38.470Z,11.50
2019-04-16T06:45:30.201Z,11.20
2019-04-16T06:48:04.448Z,11.00
2019-04-16T06:50:50.447Z,11.00
2019-04-16T06:53:38.987Z,11.00
2019-04-16T06:56:27.543Z,11.00
2019-04-16T06:59:30.433Z,11.10
2019-04-16T07:02:18.370Z,11.20
2019-04-16T07:05:01.246Z,11.00
2019-04-16T07:07:48.297Z,10.80
2019-04-16T07:10:20.192Z,10.50
2019-04-16T07:12:50.170Z,10.30
2019-04-16T07:15:24.384Z,10.20
2019-04-16T07:17:53.199Z,10.00
2019-04-16T07:20:22.884Z,10.10
2019-04-16T07:22:53.013Z,10.70
2019-04-16T07:25:27.035Z,11.50
2019-04-16T07:28:00.263Z,12.20
2019-04-16T07:30:41.252Z,12.70
2019-04-16T07:33:30.009Z,13.10
2019-04-16T07:36:30.859Z,13.50
2019-04-16T07:39:28.815Z,13.60
2019-04-16T07:42:10.250Z,13.90
2019-04-16T07:44:55.928Z,14.40
2019-04-16T07:47:53.977Z,14.80
2019-04-16T07:50:42.582Z,15.10
2019-04-16T07:53:22.916Z,15.20
2019-04-16T07:55:54.720Z,15.10
2019-04-16T07:58:24.333Z,15.10
2019-04-16T08:00:53.907Z,15.00
2019-04-16T08:03:26.519Z,15.40
2019-04-16T08:05:54.699Z,15.80
2019-04-16T08:08:25.297Z,16.10
2019-04-16T08:10:55.171Z,16.40
2019-04-16T08:13:26.253Z,16.40
2019-04-16T08:15:57.259Z,16.80
2019-04-16T08:18:27.166Z,17.10
2019-04-16T08:21:01.935Z,17.00
2019-04-16T08:23:39.197Z,17.30
2019-04-16T08:26:12.002Z,17.60
2019-04-16T08:28:39.252Z,17.50
2019-04-16T08:31:12.882Z,17.40
2019-04-16T08:33:42.825Z,17.60
2019-04-16T08:36:12.439Z,17.70
2019-04-16T08:38:42.017Z,18.00
2019-04-16T08:41:13.227Z,18.30
2019-04-16T08:43:42.836Z,18.30
2019-04-16T08:46:13.230Z,18.30
2019-04-16T08:48:43.006Z,18.10
2019-04-16T08:51:12.587Z,17.90
2019-04-16T08:53:43.816Z,17.70
2019-04-16T08:56:13.441Z,17.70
2019-04-16T08:58:43.005Z,17.50
2019-04-16T09:01:18.214Z,17.30
2019-04-16T09:03:46.727Z,17.30
2019-04-16T09:06:16.731Z,17.40
2019-04-16T09:09:11.136Z,17.50
2019-04-16T09:11:35.065Z,17.70
2019-04-16T09:14:02.706Z,17.70
2019-04-16T09:16:34.022Z,17.60
2019-04-16T09:19:09.817Z,17.70
2019-04-16T09:21:43.404Z,17.80
2019-04-16T09:24:32.778Z,17.90
2019-04-16T09:27:12.573Z,17.80
2019-04-16T09:30:09.597Z,17.70
2019-04-16T09:32:43.569Z,17.50
2019-04-16T09:35:25.949Z,17.40
2019-04-16T09:38:20.272Z,17.40
2019-04-16T09:41:27.449Z,17.10
2019-04-16T09:44:01.186Z,17.00
2019-04-16T09:46:50.304Z,16.70
2019-04-16T09:49:04.689Z,16.50
2019-04-16T09:51:34.108Z,16.30
2019-04-16T09:54:03.686Z,16.20
2019-04-16T09:56:33.264Z,16.20
2019-04-16T09:59:05.860Z,16.20
2019-04-16T10:01:50.466Z,16.10
2019-04-16T10:04:20.994Z,16.10
2019-04-16T10:06:50.594Z,15.90
2019-04-16T10:09:22.315Z,15.70
2019-04-16T10:11:51.816Z,15.70
2019-04-16T10:14:21.984Z,15.80
2019-04-16T10:16:51.629Z,15.70
2019-04-16T10:19:21.825Z,15.80
2019-04-16T10:21:54.305Z,16.00
2019-04-16T10:24:42.047Z,16.00
2019-04-16T10:27:16.864Z,16.00
2019-04-16T10:29:46.620Z,16.00
2019-04-16T10:32:18.272Z,15.90
2019-04-16T10:34:48.195Z,15.80
2019-04-16T10:37:18.875Z,15.70
2019-04-16T10:40:13.548Z,15.60
2019-04-16T10:43:00.964Z,15.40
2019-04-16T10:45:51.063Z,15.40
2019-04-16T10:48:45.826Z,15.50
2019-04-16T10:51:24.386Z,15.50
2019-04-16T10:54:19.136Z,15.50
2019-04-16T10:57:05.447Z,15.40
2019-04-16T10:59:41.143Z,15.20
2019-04-16T11:02:38.870Z,15.10
2019-04-16T11:05:21.929Z,15.10
2019-04-16T11:07:51.843Z,15.00
2019-04-16T11:10:21.540Z,14.90
2019-04-16T11:12:51.263Z,14.90
2019-04-16T11:15:23.016Z,14.90
2019-04-16T11:17:52.757Z,14.90
2019-04-16T11:20:22.487Z,15.00
2019-04-16T11:22:56.844Z,15.10
2019-04-16T11:25:26.407Z,15.20
2019-04-16T11:27:56.012Z,15.20
2019-04-16T11:30:34.916Z,15.20
2019-04-16T11:33:04.572Z,15.30
2019-04-16T11:35:34.181Z,15.50
2019-04-16T11:38:04.099Z,15.50
2019-04-16T11:40:34.030Z,15.50
2019-04-16T11:43:03.926Z,15.60
2019-04-16T11:45:33.598Z,15.70
2019-04-16T11:48:03.276Z,15.70
2019-04-16T11:50:35.812Z,15.80
2019-04-16T11:53:04.194Z,15.90
2019-04-16T11:55:33.818Z,16.10
2019-04-16T11:58:05.015Z,16.30
2019-04-16T12:00:53.933Z,16.40
2019-04-16T12:03:41.664Z,16.50
2019-04-16T12:06:28.318Z,16.60
2019-04-16T12:09:16.485Z,16.60
2019-04-16T12:11:55.149Z,16.70
2019-04-16T12:15:01.893Z,16.60
2019-04-16T12:17:52.317Z,16.70
2019-04-16T12:20:43.761Z,16.60
2019-04-16T12:23:32.333Z,16.60
2019-04-16T12:26:27.139Z,16.70
2019-04-16T12:29:05.181Z,16.90
2019-04-16T12:32:03.611Z,17.00
2019-04-16T12:34:41.419Z,17.20
2019-04-16T12:37:18.118Z,17.30
2019-04-16T12:40:01.398Z,17.20
2019-04-16T12:42:48.491Z,17.30
2019-04-16T12:45:35.773Z,17.30
2019-04-16T12:48:30.309Z,17.40
2019-04-16T12:51:13.679Z,17.50
2019-04-16T12:54:14.266Z,17.50
2019-04-16T12:57:05.678Z,17.50
2019-04-16T12:59:47.042Z,17.50
2019-04-16T13:02:44.876Z,17.40
2019-04-16T13:05:30.718Z,17.30
2019-04-16T13:08:18.135Z,17.30
2019-04-16T13:10:55.735Z,17.20
2019-04-16T13:13:56.379Z,17.10
2019-04-16T13:16:44.909Z,17.10
2019-04-16T13:19:32.469Z,17.20
2019-04-16T13:22:02.264Z,17.20
2019-04-16T13:24:53.888Z,17.20
2019-04-16T13:27:27.710Z,17.30
2019-04-16T13:30:01.278Z,17.30
2019-04-16T13:32:28.502Z,17.30
2019-04-16T13:34:58.335Z,17.30
2019-04-16T13:37:30.563Z,17.30
2019-04-16T13:40:09.872Z,17.10
2019-04-16T13:42:48.969Z,17.10
2019-04-16T13:45:28.129Z,17.10
2019-04-16T13:48:14.775Z,17.10
2019-04-16T13:50:41.103Z,16.90
2019-04-16T13:53:49.618Z,16.80
2019-04-16T13:56:41.037Z,16.80
2019-04-16T13:59:20.628Z,16.80
2019-04-16T14:02:02.371Z,16.80
2019-04-16T14:04:40.083Z,16.80
2019-04-16T14:07:25.285Z,16.80
2019-04-16T14:09:57.781Z,16.80
2019-04-16T14:12:41.908Z,16.80
2019-04-16T14:15:07.996Z,16.80
2019-04-16T14:17:53.111Z,16.80
2019-04-16T14:20:18.432Z,16.70
2019-04-16T14:22:53.294Z,16.70
2019-04-16T14:25:24.742Z,16.70
2019-04-16T14:28:01.919Z,16.70
2019-04-16T14:30:42.685Z,16.70
2019-04-16T14:33:15.372Z,16.60
2019-04-16T14:35:49.760Z,16.60
2019-04-16T14:38:50.488Z,16.50
2019-04-16T14:41:34.582Z,16.50
2019-04-16T14:44:18.395Z,16.50
2019-04-16T14:46:51.207Z,16.50
2019-04-16T14:49:21.697Z,16.50
2019-04-16T14:51:53.964Z,16.40
2019-04-16T14:54:40.161Z,16.30
2019-04-16T14:57:20.903Z,16.10
2019-04-16T15:00:02.577Z,16.10
2019-04-16T15:02:41.749Z,16.10
2019-04-16T15:05:38.274Z,16.00
2019-04-16T15:08:26.173Z,15.90
2019-04-16T15:11:20.376Z,15.80
2019-04-16T15:14:11.557Z,15.80
2019-04-16T15:16:50.998Z,15.80
2019-04-16T15:19:37.783Z,15.80
2019-04-16T15:22:40.676Z,15.70
2019-04-16T15:25:25.944Z,15.70
2019-04-16T15:28:10.135Z,15.60
2019-04-16T15:31:06.281Z,15.60
2019-04-16T15:33:48.189Z,15.60
2019-04-16T15:39:36.402Z,15.50
2019-04-16T15:42:24.690Z,15.40
2019-04-16T15:45:09.371Z,15.40
2019-04-16T15:48:14.850Z,15.40
2019-04-16T15:50:49.897Z,15.30
2019-04-16T15:53:44.808Z,15.30
2019-04-16T15:56:37.268Z,15.30
2019-04-16T15:59:32.868Z,15.30
2019-04-16T16:02:23.539Z,15.30
2019-04-16T16:05:21.424Z,15.20
2019-04-16T16:08:11.456Z,15.10
2019-04-16T16:10:51.180Z,15.10
2019-04-16T16:13:43.340Z,15.00
2019-04-16T16:16:17.984Z,14.90
2019-04-16T16:18:54.625Z,14.90
2019-04-16T16:24:42.169Z,14.70
2019-04-16T16:27:21.799Z,14.70
2019-04-16T16:29:56.960Z,14.70
2019-04-16T16:32:27.131Z,14.60
2019-04-16T16:34:57.408Z,14.50
2019-04-16T16:37:48.070Z,14.50
2019-04-16T16:46:57.984Z,14.30
2019-04-16T16:50:12.709Z,14.20
2019-04-16T16:53:14.439Z,14.10
2019-04-16T16:56:06.880Z,14.10
2019-04-16T16:59:10.198Z,13.90
2019-04-16T17:02:35.065Z,13.90
2019-04-16T17:05:29.092Z,13.70
2019-04-16T17:07:58.804Z,13.60
2019-04-16T17:10:28.331Z,13.50
2019-04-16T17:12:58.183Z,13.30
2019-04-16T17:15:27.725Z,13.20
2019-04-16T17:17:57.316Z,13.10
2019-04-16T17:20:26.868Z,13.00
2019-04-16T17:22:56.448Z,12.90
2019-04-16T17:25:36.340Z,12.90
2019-04-16T17:27:57.297Z,12.70
2019-04-16T17:30:27.271Z,12.60
2019-04-16T17:32:56.971Z,12.40
2019-04-16T17:35:26.637Z,12.30
2019-04-16T17:38:01.609Z,12.30
2019-04-16T17:40:50.635Z,12.10
2019-04-16T17:43:59.379Z,12.00
2019-04-16T17:46:33.284Z,11.90
2019-04-16T17:49:09.376Z,11.80
2019-04-16T17:52:08.984Z,11.50
2019-04-16T17:54:42.430Z,11.40
2019-04-16T17:57:30.536Z,11.20
2019-04-16T18:00:34.675Z,11.00
2019-04-16T18:03:37.259Z,10.80
2019-04-16T18:06:23.006Z,10.60
2019-04-16T18:09:17.357Z,10.40
2019-04-16T18:12:06.567Z,10.20
2019-04-16T18:14:54.023Z,10.10
2019-04-16T18:17:28.537Z,9.90
2019-04-16T18:20:17.359Z,9.80
2019-04-16T18:22:54.774Z,9.80
2019-04-16T18:25:55.128Z,9.60
2019-04-16T18:28:19.676Z,9.50
2019-04-16T18:30:57.320Z,9.50
2019-04-16T18:33:33.447Z,9.40
2019-04-16T18:36:24.955Z,9.30
2019-04-16T18:39:12.223Z,9.20
2019-04-16T18:42:04.170Z,9.10
2019-04-16T18:44:55.051Z,8.90
2019-04-16T18:47:33.195Z,8.70
2019-04-16T18:50:05.398Z,8.50
2019-04-16T18:52:36.648Z,8.50
2019-04-16T18:55:06.812Z,8.50
2019-04-16T18:57:38.405Z,8.60
2019-04-16T19:00:20.658Z,8.50
2019-04-16T19:02:50.214Z,8.40
2019-04-16T19:05:19.906Z,8.20
2019-04-16T19:07:50.556Z,8.10
2019-04-16T19:10:20.157Z,8.00
2019-04-16T19:12:50.120Z,7.80
2019-04-16T19:15:19.949Z,7.70
2019-04-16T19:17:49.539Z,7.60
2019-04-16T19:20:19.156Z,7.50
2019-04-16T19:22:49.979Z,7.40
2019-04-16T19:25:20.453Z,7.30
2019-04-16T19:27:50.019Z,7.30
2019-04-16T19:30:22.674Z,7.20
2019-04-16T19:32:52.642Z,7.10
2019-04-16T19:35:22.802Z,7.10
2019-04-16T19:37:52.962Z,7.00
2019-04-16T19:40:22.626Z,6.90
2019-04-16T19:42:52.185Z,6.80
2019-04-16T19:45:21.783Z,6.80
2019-04-16T19:47:51.373Z,6.80
2019-04-16T19:50:20.963Z,6.70
2019-04-16T19:52:50.601Z,6.60
2019-04-16T19:55:20.249Z,6.50
2019-04-16T19:57:49.829Z,6.40
2019-04-16T20:00:22.989Z,6.30
2019-04-16T20:02:51.134Z,6.30
2019-04-16T20:05:20.740Z,6.20
2019-04-16T20:07:50.371Z,6.20
2019-04-16T20:10:22.350Z,6.20
2019-04-16T20:12:51.949Z,6.30
2019-04-16T20:15:21.591Z,6.40
2019-04-16T20:17:51.236Z,6.40
2019-04-16T20:20:20.896Z,6.50
2019-04-16T20:22:50.536Z,6.50
2019-04-16T20:25:20.151Z,6.50
2019-04-16T20:27:49.728Z,6.40
2019-04-16T20:30:23.107Z,6.40
2019-04-16T20:32:50.610Z,6.40
2019-04-16T20:35:21.131Z,6.30
2019-04-16T20:37:53.933Z,6.30
2019-04-16T20:40:23.121Z,6.30
2019-04-16T20:42:52.696Z,6.30
2019-04-16T20:45:22.288Z,6.20
2019-04-16T20:47:51.849Z,6.20
2019-04-16T20:50:21.540Z,6.10
2019-04-16T20:52:51.306Z,6.10
2019-04-16T20:55:20.955Z,6.10
2019-04-16T20:57:50.598Z,6.10
2019-04-16T21:00:26.772Z,6.10
2019-04-16T21:02:56.603Z,6.10
2019-04-16T21:05:26.246Z,6.10
2019-04-16T21:07:55.911Z,6.10
2019-04-16T21:10:29.312Z,6.10
2019-04-16T21:12:58.990Z,6.00
2019-04-16T21:15:28.706Z,6.00
2019-04-16T21:17:58.513Z,6.00
2019-04-16T21:20:28.314Z,6.00
2019-04-16T21:23:01.994Z,6.00
2019-04-16T21:25:30.245Z,6.00
2019-04-16T21:28:17.455Z,5.90
2019-04-16T21:30:50.381Z,5.80
2019-04-16T21:33:26.662Z,5.80
2019-04-16T21:36:03.119Z,5.70
2019-04-16T21:38:42.265Z,5.70
2019-04-16T21:41:11.405Z,5.80
2019-04-16T21:43:41.021Z,5.80
2019-04-16T21:46:10.645Z,5.80
2019-04-16T21:48:40.308Z,5.90
2019-04-16T21:51:09.869Z,5.90
2019-04-16T21:53:39.485Z,5.90
2019-04-16T21:56:09.198Z,6.00
2019-04-16T21:58:39.030Z,6.00
2019-04-16T22:46:42.695Z,4.60
2019-04-16T22:49:12.379Z,4.40
2019-04-16T22:51:44.932Z,4.30
2019-04-16T22:54:14.701Z,4.20
2019-04-16T22:56:51.593Z,4.20
2019-04-16T22:59:21.313Z,4.10
2019-04-16T23:01:53.121Z,4.00
2019-04-16T23:04:22.775Z,3.90
2019-04-16T23:06:53.552Z,3.70
2019-04-16T23:09:25.061Z,3.70
2019-04-16T23:11:55.840Z,3.60
2019-04-16T23:14:25.968Z,3.50
2019-04-16T23:16:55.620Z,3.50
2019-04-16T23:19:25.180Z,3.40
2019-04-16T23:21:54.791Z,3.40
2019-04-16T23:24:24.362Z,3.30
2019-04-16T23:26:54.395Z,3.20
2019-04-16T23:29:24.152Z,3.20
2019-04-16T23:31:56.131Z,3.10
2019-04-16T23:34:25.232Z,3.10
2019-04-16T23:36:54.892Z,3.00
2019-04-16T23:39:24.687Z,3.00
2019-04-16T23:41:54.314Z,2.90
2019-04-16T23:44:37.707Z,2.90
2019-04-16T23:47:32.103Z,2.80
2019-04-16T23:50:26.656Z,2.80
2019-04-16T23:53:24.354Z,2.80
